createdAt,value
2023-02-24T00:01:25.137Z,2.00
2023-02-24T00:03:59.937Z,2.05
2023-02-24T00:06:36.282Z,2.10
2023-02-24T00:09:10.137Z,2.16
2023-02-24T00:11:46.355Z,2.23
2023-02-24T00:14:19.661Z,2.28
2023-02-24T00:16:53.190Z,2.36
2023-02-24T00:19:29.253Z,2.41
2023-02-24T00:22:02.558Z,2.44
2023-02-24T00:24:35.942Z,2.46
2023-02-24T00:27:12.011Z,2.44
2023-02-24T00:29:48.403Z,2.44
2023-02-24T00:32:20.839Z,2.44
2023-02-24T00:34:53.431Z,2.44
2023-02-24T00:37:25.735Z,2.45
2023-02-24T00:39:59.171Z,2.47
2023-02-24T00:42:31.983Z,2.50
2023-02-24T00:45:10.460Z,2.52
2023-02-24T00:47:41.129Z,2.57
2023-02-24T00:50:15.448Z,2.62
2023-02-24T00:52:49.284Z,2.65
2023-02-24T00:55:23.582Z,2.66
2023-02-24T00:57:56.387Z,2.69
2023-02-24T01:00:29.911Z,2.72
2023-02-24T01:03:02.348Z,2.73
2023-02-24T01:05:39.073Z,2.72
2023-02-24T01:08:11.580Z,2.70
2023-02-24T01:11:03.960Z,2.69
2023-02-24T01:13:36.343Z,2.68
2023-02-24T01:16:09.468Z,2.68
2023-02-24T01:18:41.861Z,2.71
2023-02-24T01:21:14.865Z,2.74
2023-02-24T01:23:50.605Z,2.75
2023-02-24T01:26:24.215Z,2.75
2023-02-24T01:28:56.834Z,2.79
2023-02-24T01:31:29.452Z,2.83
2023-02-24T01:34:06.063Z,2.82
2023-02-24T01:36:39.550Z,2.78
2023-02-24T01:39:12.574Z,2.78
2023-02-24T01:41:47.409Z,2.80
2023-02-24T01:44:54.257Z,2.81
2023-02-24T01:47:31.319Z,2.86
2023-02-24T01:50:06.814Z,2.89
2023-02-24T01:52:40.145Z,2.93
2023-02-24T01:55:20.367Z,2.96
2023-02-24T01:57:55.388Z,3.00
2023-02-24T02:00:38.231Z,3.05
2023-02-24T02:03:20.902Z,3.08
2023-02-24T02:05:54.201Z,3.10
2023-02-24T02:08:27.204Z,3.11
2023-02-24T02:11:04.360Z,3.12
2023-02-24T02:13:41.310Z,3.12
2023-02-24T02:16:36.231Z,3.13
2023-02-24T02:19:33.122Z,3.17
2023-02-24T02:22:19.268Z,3.22
2023-02-24T02:24:58.516Z,3.30
2023-02-24T02:28:02.960Z,3.37
2023-02-24T02:31:04.122Z,3.43
2023-02-24T02:34:08.106Z,3.48
2023-02-24T02:36:50.515Z,3.51
2023-02-24T02:39:29.180Z,3.54
2023-02-24T02:42:14.508Z,3.56
2023-02-24T02:44:56.170Z,3.58
2023-02-24T02:47:35.035Z,3.59
2023-02-24T02:50:18.473Z,3.60
2023-02-24T02:52:56.882Z,3.64
2023-02-24T02:55:33.143Z,3.68
2023-02-24T02:58:09.765Z,3.74
2023-02-24T03:00:50.304Z,3.80
2023-02-24T03:03:22.927Z,3.89
2023-02-24T03:05:58.298Z,3.97
2023-02-24T03:08:37.332Z,4.06
2023-02-24T03:11:14.158Z,4.11
2023-02-24T03:13:51.036Z,4.15
2023-02-24T03:16:26.658Z,4.18
2023-02-24T03:19:06.236Z,4.19
2023-02-24T03:21:42.244Z,4.22
2023-02-24T03:24:15.997Z,4.26
2023-02-24T03:26:52.571Z,4.32
2023-02-24T03:29:36.578Z,4.39
2023-02-24T03:32:15.709Z,4.47
2023-02-24T03:34:56.875Z,4.53
2023-02-24T03:37:30.418Z,4.60
2023-02-24T03:40:11.976Z,4.66
2023-02-24T03:42:48.437Z,4.69
2023-02-24T03:45:23.340Z,4.74
2023-02-24T03:47:56.501Z,4.75
2023-02-24T03:50:32.017Z,4.76
2023-02-24T03:53:22.483Z,4.77
2023-02-24T03:56:04.852Z,4.76
2023-02-24T03:59:00.155Z,4.71
2023-02-24T04:01:43.302Z,4.69
2023-02-24T04:04:27.602Z,4.69
2023-02-24T04:07:14.119Z,4.71
2023-02-24T04:09:57.991Z,4.73
2023-02-24T04:12:36.931Z,4.77
2023-02-24T04:15:17.293Z,4.78
2023-02-24T04:17:53.737Z,4.80
2023-02-24T04:20:32.150Z,4.82
2023-02-24T04:23:10.192Z,4.84
2023-02-24T04:25:45.084Z,4.88
2023-02-24T04:28:19.090Z,4.92
2023-02-24T04:30:55.535Z,4.94
2023-02-24T04:33:28.528Z,4.96
2023-02-24T04:36:02.988Z,4.97
2023-02-24T04:38:36.306Z,4.98
2023-02-24T04:41:08.743Z,5.00
2023-02-24T04:43:41.088Z,5.02
2023-02-24T04:46:13.593Z,5.05
2023-02-24T04:48:46.652Z,5.06
2023-02-24T04:51:21.291Z,5.09
2023-02-24T04:53:55.654Z,5.11
2023-02-24T04:56:29.098Z,5.14
2023-02-24T04:59:02.785Z,5.18
2023-02-24T05:01:35.013Z,5.25
2023-02-24T05:04:08.595Z,5.28
2023-02-24T05:06:44.193Z,5.31
2023-02-24T05:09:18.779Z,5.31
2023-02-24T05:11:53.324Z,5.30
2023-02-24T05:14:26.019Z,5.28
2023-02-24T05:17:01.725Z,5.26
2023-02-24T05:19:52.150Z,5.25
2023-02-24T05:22:24.489Z,5.23
2023-02-24T05:24:57.708Z,5.24
2023-02-24T05:27:29.877Z,5.26
2023-02-24T05:30:02.635Z,5.27
2023-02-24T05:32:35.381Z,5.28
2023-02-24T05:35:08.864Z,5.29
2023-02-24T05:37:43.277Z,5.31
2023-02-24T05:40:16.072Z,5.33
2023-02-24T05:42:48.117Z,5.36
2023-02-24T05:45:20.351Z,5.39
2023-02-24T05:47:55.229Z,5.41
2023-02-24T05:50:27.442Z,5.46
2023-02-24T05:52:59.795Z,5.48
2023-02-24T05:55:33.019Z,5.52
2023-02-24T05:58:07.414Z,5.56
2023-02-24T06:00:41.192Z,5.61
2023-02-24T06:03:17.672Z,5.64
2023-02-24T06:05:59.349Z,5.65
2023-02-24T06:08:42.171Z,5.65
2023-02-24T06:11:15.933Z,5.62
2023-02-24T06:13:48.946Z,5.61
2023-02-24T06:16:21.755Z,5.59
2023-02-24T06:18:54.124Z,5.57
2023-02-24T06:21:29.439Z,5.57
2023-02-24T06:24:02.804Z,5.59
2023-02-24T06:26:36.949Z,5.60
2023-02-24T06:29:13.329Z,5.62
2023-02-24T06:31:48.870Z,5.65
2023-02-24T06:34:21.613Z,5.70
2023-02-24T06:36:53.990Z,5.74
2023-02-24T06:39:26.032Z,5.79
2023-02-24T06:42:03.996Z,5.82
2023-02-24T06:44:38.427Z,5.85
2023-02-24T06:47:13.197Z,5.87
2023-02-24T06:49:45.192Z,5.89
2023-02-24T06:52:19.396Z,5.94
2023-02-24T06:54:52.609Z,5.97
2023-02-24T06:57:25.083Z,5.98
2023-02-24T06:59:57.163Z,5.99
2023-02-24T07:02:39.796Z,6.02
2023-02-24T07:05:14.960Z,6.06
2023-02-24T07:07:47.751Z,6.11
2023-02-24T07:10:20.277Z,6.17
2023-02-24T07:12:54.864Z,6.23
2023-02-24T07:15:32.084Z,6.23
2023-02-24T07:18:14.998Z,6.21
2023-02-24T07:20:47.882Z,6.19
2023-02-24T07:23:21.228Z,6.18
2023-02-24T07:25:53.569Z,6.19
2023-02-24T07:28:26.467Z,6.20
2023-02-24T07:30:58.504Z,6.21
2023-02-24T07:33:34.451Z,6.24
2023-02-24T07:36:09.750Z,6.26
2023-02-24T07:38:42.693Z,6.28
2023-02-24T07:41:19.282Z,6.32
2023-02-24T07:43:53.079Z,6.36
2023-02-24T07:46:28.153Z,6.40
2023-02-24T07:49:01.340Z,6.42
2023-02-24T07:51:33.674Z,6.44
2023-02-24T07:54:08.882Z,6.46
2023-02-24T07:56:46.286Z,6.50
2023-02-24T07:59:22.170Z,6.55
2023-02-24T08:01:56.022Z,6.59
2023-02-24T08:04:30.593Z,6.62
2023-02-24T08:07:05.479Z,6.67
2023-02-24T08:10:03.899Z,6.70
2023-02-24T08:12:36.237Z,6.74
2023-02-24T08:15:17.727Z,6.74
2023-02-24T08:17:49.810Z,6.71
2023-02-24T08:20:23.218Z,6.68
2023-02-24T08:22:56.854Z,6.67
2023-02-24T08:25:36.756Z,6.69
2023-02-24T08:28:11.902Z,6.72
2023-02-24T08:30:46.572Z,6.75
2023-02-24T08:33:23.203Z,6.79
2023-02-24T08:36:01.809Z,6.84
2023-02-24T08:38:45.034Z,6.90
2023-02-24T08:41:28.057Z,6.97
2023-02-24T08:44:03.152Z,7.02
2023-02-24T08:46:38.143Z,7.07
2023-02-24T08:49:11.046Z,7.07
2023-02-24T08:51:44.114Z,7.10
2023-02-24T08:54:17.822Z,7.10
2023-02-24T08:56:56.241Z,7.09
2023-02-24T08:59:49.396Z,7.07
2023-02-24T09:02:27.510Z,7.03
2023-02-24T09:05:03.600Z,7.00
2023-02-24T09:07:43.416Z,7.00
2023-02-24T09:10:19.406Z,7.01
2023-02-24T09:12:53.997Z,7.03
2023-02-24T09:15:41.437Z,7.04
2023-02-24T09:18:14.697Z,7.06
2023-02-24T09:21:16.297Z,7.09
2023-02-24T09:23:48.496Z,7.18
2023-02-24T09:26:20.923Z,7.24
2023-02-24T09:28:56.919Z,7.24
2023-02-24T09:31:41.088Z,7.29
2023-02-24T09:34:18.945Z,7.35
2023-02-24T09:37:03.367Z,7.32
2023-02-24T09:39:52.927Z,7.29
2023-02-24T09:42:46.373Z,7.24
2023-02-24T09:45:33.751Z,7.19
2023-02-24T09:48:21.544Z,7.16
2023-02-24T09:51:05.315Z,7.13
2023-02-24T22:02:32.838Z,3.00
2023-02-24T22:05:26.741Z,3.00
2023-02-24T22:08:15.897Z,2.98
2023-02-24T22:11:05.255Z,2.96
2023-02-24T22:13:54.426Z,2.92
2023-02-24T22:16:45.669Z,2.89
2023-02-24T22:19:35.569Z,2.86
2023-02-24T22:22:24.627Z,2.83
2023-02-24T22:25:14.670Z,2.86
2023-02-24T22:28:02.735Z,2.91
2023-02-24T22:30:56.962Z,2.94
2023-02-24T22:33:45.925Z,2.97
2023-02-24T22:36:37.935Z,3.01
2023-02-24T22:39:27.014Z,3.04
2023-02-24T22:42:17.290Z,3.09
2023-02-24T22:45:09.456Z,3.15
2023-02-24T22:47:59.903Z,3.18
2023-02-24T22:50:48.750Z,3.20
2023-02-24T22:53:41.285Z,3.23
2023-02-24T22:56:35.507Z,3.25
2023-02-24T22:59:24.501Z,3.23
2023-02-24T23:02:14.523Z,3.21
2023-02-24T23:05:03.887Z,3.22
2023-02-24T23:07:56.040Z,3.25
2023-02-24T23:10:45.003Z,3.27
2023-02-24T23:13:34.735Z,3.29
2023-02-24T23:16:27.774Z,3.34
2023-02-24T23:19:20.372Z,3.39
2023-02-24T23:22:09.584Z,3.43
2023-02-24T23:24:58.570Z,3.47
2023-02-24T23:27:48.527Z,3.48
2023-02-24T23:30:44.056Z,3.48
2023-02-24T23:33:34.458Z,3.43
2023-02-24T23:36:27.268Z,3.42
2023-02-24T23:39:20.208Z,3.39
2023-02-24T23:42:09.579Z,3.38
2023-02-24T23:44:58.780Z,3.35
2023-02-24T23:47:48.067Z,3.33
2023-02-24T23:50:38.306Z,3.32
2023-02-24T23:53:27.261Z,3.33
2023-02-24T23:56:18.958Z,3.38
2023-02-24T23:59:07.093Z,3.44
